sensor_id;sensor_type;location;lat;lon;timestamp;P1;durP1;ratioP1;P2;durP2;ratioP2
72904;SDS011;61048;52.162;4.516;2022-10-31T00:01:46;3.80;;;1.02;;
72904;SDS011;61048;52.162;4.516;2022-10-31T00:04:12;2.92;;;1.15;;
72904;SDS011;61048;52.162;4.516;2022-10-31T00:06:39;2.92;;;1.15;;
72904;SDS011;61048;52.162;4.516;2022-10-31T00:09:06;2.22;;;1.10;;
72904;SDS011;61048;52.162;4.516;2022-10-31T00:11:33;2.03;;;0.75;;
72904;SDS011;61048;52.162;4.516;2022-10-31T00:14:01;3.40;;;2.03;;
72904;SDS011;61048;52.162;4.516;2022-10-31T00:16:28;2.13;;;0.93;;
72904;SDS011;61048;52.162;4.516;2022-10-31T00:18:56;2.42;;;0.80;;
72904;SDS011;61048;52.162;4.516;2022-10-31T00:21:24;3.28;;;1.00;;
72904;SDS011;61048;52.162;4.516;2022-10-31T00:23:51;3.13;;;1.10;;
72904;SDS011;61048;52.162;4.516;2022-10-31T00:26:18;2.95;;;0.90;;
72904;SDS011;61048;52.162;4.516;2022-10-31T00:28:46;2.70;;;1.20;;
72904;SDS011;61048;52.162;4.516;2022-10-31T00:31:14;2.25;;;0.85;;
72904;SDS011;61048;52.162;4.516;2022-10-31T00:33:41;2.33;;;0.80;;
72904;SDS011;61048;52.162;4.516;2022-10-31T00:36:10;2.38;;;0.93;;
72904;SDS011;61048;52.162;4.516;2022-10-31T00:38:38;1.92;;;1.15;;
72904;SDS011;61048;52.162;4.516;2022-10-31T00:41:05;2.65;;;1.33;;
72904;SDS011;61048;52.162;4.516;2022-10-31T00:43:32;5.88;;;1.08;;
72904;SDS011;61048;52.162;4.516;2022-10-31T00:45:59;1.67;;;1.25;;
72904;SDS011;61048;52.162;4.516;2022-10-31T00:48:27;4.72;;;0.98;;
72904;SDS011;61048;52.162;4.516;2022-10-31T00:50:54;1.90;;;0.68;;
72904;SDS011;61048;52.162;4.516;2022-10-31T00:53:20;3.60;;;1.10;;
72904;SDS011;61048;52.162;4.516;2022-10-31T00:55:47;1.33;;;0.30;;
72904;SDS011;61048;52.162;4.516;2022-10-31T00:58:14;1.83;;;0.40;;
72904;SDS011;61048;52.162;4.516;2022-10-31T01:00:41;2.55;;;1.02;;
72904;SDS011;61048;52.162;4.516;2022-10-31T01:03:08;1.08;;;0.30;;
72904;SDS011;61048;52.162;4.516;2022-10-31T01:05:36;2.47;;;0.85;;
72904;SDS011;61048;52.162;4.516;2022-10-31T01:08:03;3.72;;;1.17;;
72904;SDS011;61048;52.162;4.516;2022-10-31T01:10:30;3.28;;;0.80;;
72904;SDS011;61048;52.162;4.516;2022-10-31T01:12:57;1.95;;;1.10;;
72904;SDS011;61048;52.162;4.516;2022-10-31T01:15:24;3.40;;;1.05;;
72904;SDS011;61048;52.162;4.516;2022-10-31T01:17:51;2.38;;;1.00;;
72904;SDS011;61048;52.162;4.516;2022-10-31T01:20:18;4.80;;;1.15;;
72904;SDS011;61048;52.162;4.516;2022-10-31T01:22:46;2.40;;;1.10;;
72904;SDS011;61048;52.162;4.516;2022-10-31T01:25:13;1.38;;;0.98;;
72904;SDS011;61048;52.162;4.516;2022-10-31T01:27:40;2.30;;;1.00;;
72904;SDS011;61048;52.162;4.516;2022-10-31T01:30:07;2.88;;;0.77;;
72904;SDS011;61048;52.162;4.516;2022-10-31T01:32:34;2.88;;;1.00;;
72904;SDS011;61048;52.162;4.516;2022-10-31T01:35:01;2.92;;;0.85;;
72904;SDS011;61048;52.162;4.516;2022-10-31T01:37:28;2.47;;;0.85;;
72904;SDS011;61048;52.162;4.516;2022-10-31T01:39:58;2.38;;;1.30;;
72904;SDS011;61048;52.162;4.516;2022-10-31T01:42:25;2.33;;;0.82;;
72904;SDS011;61048;52.162;4.516;2022-10-31T01:44:56;2.05;;;1.05;;
72904;SDS011;61048;52.162;4.516;2022-10-31T01:47:27;2.47;;;1.25;;
72904;SDS011;61048;52.162;4.516;2022-10-31T01:50:00;2.63;;;1.20;;
72904;SDS011;61048;52.162;4.516;2022-10-31T01:52:30;2.22;;;1.25;;
72904;SDS011;61048;52.162;4.516;2022-10-31T01:55:04;2.88;;;1.00;;
72904;SDS011;61048;52.162;4.516;2022-10-31T01:57:33;2.20;;;0.57;;
72904;SDS011;61048;52.162;4.516;2022-10-31T02:00:04;2.22;;;1.15;;
72904;SDS011;61048;52.162;4.516;2022-10-31T02:02:33;2.67;;;1.80;;
72904;SDS011;61048;52.162;4.516;2022-10-31T02:05:01;2.50;;;1.05;;
72904;SDS011;61048;52.162;4.516;2022-10-31T02:07:33;3.03;;;1.50;;
72904;SDS011;61048;52.162;4.516;2022-10-31T02:10:07;2.42;;;1.30;;
72904;SDS011;61048;52.162;4.516;2022-10-31T02:12:34;1.60;;;1.10;;
72904;SDS011;61048;52.162;4.516;2022-10-31T02:15:02;1.98;;;0.60;;
72904;SDS011;61048;52.162;4.516;2022-10-31T02:17:31;2.13;;;1.20;;
72904;SDS011;61048;52.162;4.516;2022-10-31T02:20:00;3.20;;;1.48;;
72904;SDS011;61048;52.162;4.516;2022-10-31T02:22:38;2.38;;;1.13;;
72904;SDS011;61048;52.162;4.516;2022-10-31T02:28:25;2.65;;;1.50;;
72904;SDS011;61048;52.162;4.516;2022-10-31T02:31:12;3.17;;;0.90;;
72904;SDS011;61048;52.162;4.516;2022-10-31T02:33:48;2.13;;;1.20;;
72904;SDS011;61048;52.162;4.516;2022-10-31T02:36:20;2.88;;;1.23;;
72904;SDS011;61048;52.162;4.516;2022-10-31T02:38:55;1.98;;;1.15;;
72904;SDS011;61048;52.162;4.516;2022-10-31T02:41:29;3.30;;;1.27;;
72904;SDS011;61048;52.162;4.516;2022-10-31T02:44:05;3.03;;;1.17;;
72904;SDS011;61048;52.162;4.516;2022-10-31T02:46:37;2.47;;;1.02;;
72904;SDS011;61048;52.162;4.516;2022-10-31T02:49:10;1.50;;;0.98;;
72904;SDS011;61048;52.162;4.516;2022-10-31T02:51:42;1.63;;;0.93;;
72904;SDS011;61048;52.162;4.516;2022-10-31T02:54:17;2.50;;;1.15;;
72904;SDS011;61048;52.162;4.516;2022-10-31T02:56:45;2.25;;;1.20;;
72904;SDS011;61048;52.162;4.516;2022-10-31T02:59:13;1.98;;;0.70;;
72904;SDS011;61048;52.162;4.516;2022-10-31T03:07:35;1.70;;;0.98;;
72904;SDS011;61048;52.162;4.516;2022-10-31T03:10:09;1.98;;;1.17;;
72904;SDS011;61048;52.162;4.516;2022-10-31T03:12:44;2.10;;;1.00;;
72904;SDS011;61048;52.162;4.516;2022-10-31T03:15:21;2.28;;;1.50;;
72904;SDS011;61048;52.162;4.516;2022-10-31T03:17:55;2.20;;;1.00;;
72904;SDS011;61048;52.162;4.516;2022-10-31T03:20:25;2.60;;;1.13;;
72904;SDS011;61048;52.162;4.516;2022-10-31T03:22:55;3.40;;;0.60;;
72904;SDS011;61048;52.162;4.516;2022-10-31T03:25:24;1.65;;;0.60;;
72904;SDS011;61048;52.162;4.516;2022-10-31T03:27:52;2.13;;;0.90;;
72904;SDS011;61048;52.162;4.516;2022-10-31T03:30:19;1.58;;;1.08;;
72904;SDS011;61048;52.162;4.516;2022-10-31T03:32:47;2.92;;;1.33;;
72904;SDS011;61048;52.162;4.516;2022-10-31T03:35:19;4.07;;;1.25;;
72904;SDS011;61048;52.162;4.516;2022-10-31T03:37:48;2.03;;;1.38;;
72904;SDS011;61048;52.162;4.516;2022-10-31T03:40:18;1.77;;;0.90;;
72904;SDS011;61048;52.162;4.516;2022-10-31T03:42:49;2.53;;;1.50;;
72904;SDS011;61048;52.162;4.516;2022-10-31T03:45:21;2.22;;;1.30;;
72904;SDS011;61048;52.162;4.516;2022-10-31T03:47:50;2.17;;;1.10;;
72904;SDS011;61048;52.162;4.516;2022-10-31T03:50:20;1.60;;;1.25;;
72904;SDS011;61048;52.162;4.516;2022-10-31T03:52:50;2.03;;;1.13;;
72904;SDS011;61048;52.162;4.516;2022-10-31T03:55:23;1.60;;;0.80;;
72904;SDS011;61048;52.162;4.516;2022-10-31T03:57:54;2.75;;;1.23;;
72904;SDS011;61048;52.162;4.516;2022-10-31T04:00:26;2.90;;;1.10;;
72904;SDS011;61048;52.162;4.516;2022-10-31T04:02:53;1.80;;;1.08;;
72904;SDS011;61048;52.162;4.516;2022-10-31T04:05:26;2.28;;;1.20;;
72904;SDS011;61048;52.162;4.516;2022-10-31T04:07:54;2.40;;;1.45;;
72904;SDS011;61048;52.162;4.516;2022-10-31T04:10:23;1.80;;;1.05;;
72904;SDS011;61048;52.162;4.516;2022-10-31T04:12:54;1.92;;;1.20;;
72904;SDS011;61048;52.162;4.516;2022-10-31T04:15:24;2.28;;;1.08;;
72904;SDS011;61048;52.162;4.516;2022-10-31T04:17:53;2.08;;;0.93;;
72904;SDS011;61048;52.162;4.516;2022-10-31T04:20:31;1.90;;;1.15;;
72904;SDS011;61048;52.162;4.516;2022-10-31T04:22:59;2.47;;;0.88;;
72904;SDS011;61048;52.162;4.516;2022-10-31T04:25:26;3.25;;;1.10;;
72904;SDS011;61048;52.162;4.516;2022-10-31T04:27:53;2.67;;;1.45;;
72904;SDS011;61048;52.162;4.516;2022-10-31T04:30:20;1.52;;;1.08;;
72904;SDS011;61048;52.162;4.516;2022-10-31T04:32:47;3.58;;;1.50;;
72904;SDS011;61048;52.162;4.516;2022-10-31T04:35:14;2.13;;;0.93;;
72904;SDS011;61048;52.162;4.516;2022-10-31T04:37:42;1.50;;;1.00;;
72904;SDS011;61048;52.162;4.516;2022-10-31T04:40:09;2.63;;;1.20;;
72904;SDS011;61048;52.162;4.516;2022-10-31T04:42:37;3.25;;;1.35;;
72904;SDS011;61048;52.162;4.516;2022-10-31T04:45:04;2.47;;;1.30;;
72904;SDS011;61048;52.162;4.516;2022-10-31T04:47:31;1.77;;;1.05;;
72904;SDS011;61048;52.162;4.516;2022-10-31T04:49:58;2.72;;;1.15;;
72904;SDS011;61048;52.162;4.516;2022-10-31T04:52:25;2.38;;;1.00;;
72904;SDS011;61048;52.162;4.516;2022-10-31T04:54:54;5.60;;;1.77;;
72904;SDS011;61048;52.162;4.516;2022-10-31T04:57:20;4.90;;;1.50;;
72904;SDS011;61048;52.162;4.516;2022-10-31T04:59:47;2.97;;;1.15;;
72904;SDS011;61048;52.162;4.516;2022-10-31T05:02:14;2.20;;;0.93;;
72904;SDS011;61048;52.162;4.516;2022-10-31T05:04:41;3.40;;;1.45;;
72904;SDS011;61048;52.162;4.516;2022-10-31T05:07:08;2.63;;;1.00;;
72904;SDS011;61048;52.162;4.516;2022-10-31T05:09:35;2.60;;;1.73;;
72904;SDS011;61048;52.162;4.516;2022-10-31T05:12:03;2.53;;;1.40;;
72904;SDS011;61048;52.162;4.516;2022-10-31T05:14:30;2.90;;;1.65;;
72904;SDS011;61048;52.162;4.516;2022-10-31T05:16:56;3.13;;;1.00;;
72904;SDS011;61048;52.162;4.516;2022-10-31T05:19:23;2.83;;;1.52;;
72904;SDS011;61048;52.162;4.516;2022-10-31T05:21:50;2.28;;;1.40;;
72904;SDS011;61048;52.162;4.516;2022-10-31T05:24:17;2.72;;;1.63;;
72904;SDS011;61048;52.162;4.516;2022-10-31T05:26:46;3.20;;;1.40;;
72904;SDS011;61048;52.162;4.516;2022-10-31T05:29:15;3.05;;;2.00;;
72904;SDS011;61048;52.162;4.516;2022-10-31T05:31:41;3.38;;;1.67;;
72904;SDS011;61048;52.162;4.516;2022-10-31T05:34:08;2.70;;;1.75;;
72904;SDS011;61048;52.162;4.516;2022-10-31T05:36:35;5.10;;;1.30;;
72904;SDS011;61048;52.162;4.516;2022-10-31T05:39:02;4.13;;;1.70;;
72904;SDS011;61048;52.162;4.516;2022-10-31T05:41:29;3.33;;;1.60;;
72904;SDS011;61048;52.162;4.516;2022-10-31T05:43:56;4.65;;;1.75;;
72904;SDS011;61048;52.162;4.516;2022-10-31T05:46:24;48.85;;;12.88;;
72904;SDS011;61048;52.162;4.516;2022-10-31T05:48:51;69.50;;;17.60;;
72904;SDS011;61048;52.162;4.516;2022-10-31T05:51:18;43.40;;;12.13;;
72904;SDS011;61048;52.162;4.516;2022-10-31T05:53:45;57.92;;;14.20;;
72904;SDS011;61048;52.162;4.516;2022-10-31T05:56:12;53.13;;;13.90;;
72904;SDS011;61048;52.162;4.516;2022-10-31T05:58:39;48.80;;;15.25;;
72904;SDS011;61048;52.162;4.516;2022-10-31T06:01:06;49.75;;;13.90;;
72904;SDS011;61048;52.162;4.516;2022-10-31T06:03:34;48.30;;;14.50;;
72904;SDS011;61048;52.162;4.516;2022-10-31T06:06:01;49.65;;;14.90;;
72904;SDS011;61048;52.162;4.516;2022-10-31T06:08:28;50.13;;;13.63;;
72904;SDS011;61048;52.162;4.516;2022-10-31T06:10:55;51.22;;;14.38;;
72904;SDS011;61048;52.162;4.516;2022-10-31T06:13:21;47.08;;;13.75;;
72904;SDS011;61048;52.162;4.516;2022-10-31T06:15:49;45.53;;;13.60;;
72904;SDS011;61048;52.162;4.516;2022-10-31T06:18:16;41.38;;;13.25;;
72904;SDS011;61048;52.162;4.516;2022-10-31T06:20:44;46.45;;;12.55;;
72904;SDS011;61048;52.162;4.516;2022-10-31T06:23:11;41.67;;;11.68;;
72904;SDS011;61048;52.162;4.516;2022-10-31T06:25:37;39.58;;;10.85;;
72904;SDS011;61048;52.162;4.516;2022-10-31T06:28:04;37.25;;;12.80;;
72904;SDS011;61048;52.162;4.516;2022-10-31T06:30:31;36.15;;;10.52;;
72904;SDS011;61048;52.162;4.516;2022-10-31T06:33:02;36.90;;;11.15;;
72904;SDS011;61048;52.162;4.516;2022-10-31T06:35:29;35.33;;;10.52;;
72904;SDS011;61048;52.162;4.516;2022-10-31T06:37:57;27.42;;;10.43;;
72904;SDS011;61048;52.162;4.516;2022-10-31T06:40:24;31.25;;;12.02;;
72904;SDS011;61048;52.162;4.516;2022-10-31T06:42:58;32.03;;;9.43;;
72904;SDS011;61048;52.162;4.516;2022-10-31T06:45:26;25.40;;;8.48;;
72904;SDS011;61048;52.162;4.516;2022-10-31T06:47:53;21.52;;;9.30;;
72904;SDS011;61048;52.162;4.516;2022-10-31T06:50:20;27.52;;;8.40;;
72904;SDS011;61048;52.162;4.516;2022-10-31T06:52:51;23.50;;;7.50;;
72904;SDS011;61048;52.162;4.516;2022-10-31T06:55:20;15.32;;;5.00;;
72904;SDS011;61048;52.162;4.516;2022-10-31T06:57:51;12.48;;;5.05;;
72904;SDS011;61048;52.162;4.516;2022-10-31T07:00:19;13.90;;;4.47;;
72904;SDS011;61048;52.162;4.516;2022-10-31T07:02:52;13.23;;;5.43;;
72904;SDS011;61048;52.162;4.516;2022-10-31T07:05:20;16.17;;;5.18;;
72904;SDS011;61048;52.162;4.516;2022-10-31T07:07:47;12.93;;;4.93;;
72904;SDS011;61048;52.162;4.516;2022-10-31T07:10:17;10.00;;;3.97;;
72904;SDS011;61048;52.162;4.516;2022-10-31T07:12:45;10.73;;;4.25;;
72904;SDS011;61048;52.162;4.516;2022-10-31T07:15:12;11.85;;;4.72;;
72904;SDS011;61048;52.162;4.516;2022-10-31T07:17:39;10.52;;;5.10;;
72904;SDS011;61048;52.162;4.516;2022-10-31T07:20:07;7.90;;;3.75;;
72904;SDS011;61048;52.162;4.516;2022-10-31T07:22:35;9.93;;;3.70;;
72904;SDS011;61048;52.162;4.516;2022-10-31T07:25:03;9.00;;;4.30;;
72904;SDS011;61048;52.162;4.516;2022-10-31T07:27:34;8.15;;;4.32;;
72904;SDS011;61048;52.162;4.516;2022-10-31T07:30:05;8.43;;;3.83;;
72904;SDS011;61048;52.162;4.516;2022-10-31T07:32:39;51.72;;;9.45;;
72904;SDS011;61048;52.162;4.516;2022-10-31T07:35:07;74.20;;;16.80;;
72904;SDS011;61048;52.162;4.516;2022-10-31T07:37:34;67.45;;;13.35;;
72904;SDS011;61048;52.162;4.516;2022-10-31T07:40:02;62.22;;;12.32;;
72904;SDS011;61048;52.162;4.516;2022-10-31T07:42:34;43.53;;;11.20;;
72904;SDS011;61048;52.162;4.516;2022-10-31T07:45:01;40.03;;;10.02;;
72904;SDS011;61048;52.162;4.516;2022-10-31T07:47:29;48.45;;;10.48;;
72904;SDS011;61048;52.162;4.516;2022-10-31T07:49:56;41.08;;;9.82;;
72904;SDS011;61048;52.162;4.516;2022-10-31T07:52:23;39.28;;;10.27;;
72904;SDS011;61048;52.162;4.516;2022-10-31T07:54:50;34.58;;;9.02;;
72904;SDS011;61048;52.162;4.516;2022-10-31T07:57:17;31.35;;;9.52;;
72904;SDS011;61048;52.162;4.516;2022-10-31T07:59:44;34.97;;;10.00;;
72904;SDS011;61048;52.162;4.516;2022-10-31T08:02:10;32.13;;;9.07;;
72904;SDS011;61048;52.162;4.516;2022-10-31T08:04:39;25.13;;;7.85;;
72904;SDS011;61048;52.162;4.516;2022-10-31T08:07:05;26.75;;;9.38;;
72904;SDS011;61048;52.162;4.516;2022-10-31T08:09:32;23.50;;;7.90;;
72904;SDS011;61048;52.162;4.516;2022-10-31T08:11:59;24.20;;;7.80;;
72904;SDS011;61048;52.162;4.516;2022-10-31T08:14:26;24.15;;;8.52;;
72904;SDS011;61048;52.162;4.516;2022-10-31T08:16:53;22.50;;;8.35;;
72904;SDS011;61048;52.162;4.516;2022-10-31T08:19:20;17.60;;;7.22;;
72904;SDS011;61048;52.162;4.516;2022-10-31T08:21:51;21.50;;;7.57;;
72904;SDS011;61048;52.162;4.516;2022-10-31T08:24:19;19.10;;;6.78;;
72904;SDS011;61048;52.162;4.516;2022-10-31T08:26:46;18.58;;;7.45;;
72904;SDS011;61048;52.162;4.516;2022-10-31T08:29:13;22.10;;;8.20;;
72904;SDS011;61048;52.162;4.516;2022-10-31T08:31:40;17.02;;;6.93;;
72904;SDS011;61048;52.162;4.516;2022-10-31T08:34:07;21.33;;;8.25;;
72904;SDS011;61048;52.162;4.516;2022-10-31T08:36:34;17.10;;;8.23;;
72904;SDS011;61048;52.162;4.516;2022-10-31T08:39:02;17.17;;;7.22;;
72904;SDS011;61048;52.162;4.516;2022-10-31T08:41:29;20.10;;;8.52;;
72904;SDS011;61048;52.162;4.516;2022-10-31T08:43:56;17.33;;;7.43;;
72904;SDS011;61048;52.162;4.516;2022-10-31T08:46:23;16.08;;;7.68;;
72904;SDS011;61048;52.162;4.516;2022-10-31T08:48:50;20.25;;;7.75;;
72904;SDS011;61048;52.162;4.516;2022-10-31T08:51:17;18.90;;;8.18;;
72904;SDS011;61048;52.162;4.516;2022-10-31T08:53:44;20.85;;;8.07;;
72904;SDS011;61048;52.162;4.516;2022-10-31T08:56:12;18.65;;;9.07;;
72904;SDS011;61048;52.162;4.516;2022-10-31T08:58:39;19.73;;;9.45;;
72904;SDS011;61048;52.162;4.516;2022-10-31T09:01:06;19.85;;;9.02;;
72904;SDS011;61048;52.162;4.516;2022-10-31T09:03:32;16.15;;;7.10;;
72904;SDS011;61048;52.162;4.516;2022-10-31T09:06:00;15.57;;;8.48;;
72904;SDS011;61048;52.162;4.516;2022-10-31T09:08:30;18.05;;;9.10;;
72904;SDS011;61048;52.162;4.516;2022-10-31T09:10:58;18.98;;;8.55;;
72904;SDS011;61048;52.162;4.516;2022-10-31T09:13:26;15.68;;;8.05;;
72904;SDS011;61048;52.162;4.516;2022-10-31T09:15:53;15.43;;;8.73;;
72904;SDS011;61048;52.162;4.516;2022-10-31T09:18:22;18.25;;;8.75;;
72904;SDS011;61048;52.162;4.516;2022-10-31T09:20:49;20.20;;;8.82;;
72904;SDS011;61048;52.162;4.516;2022-10-31T09:23:16;17.00;;;9.40;;
72904;SDS011;61048;52.162;4.516;2022-10-31T09:25:45;15.70;;;8.75;;
72904;SDS011;61048;52.162;4.516;2022-10-31T09:28:13;16.90;;;9.30;;
72904;SDS011;61048;52.162;4.516;2022-10-31T09:30:42;21.08;;;8.95;;
72904;SDS011;61048;52.162;4.516;2022-10-31T09:33:12;16.55;;;8.43;;
72904;SDS011;61048;52.162;4.516;2022-10-31T09:35:40;15.20;;;7.65;;
72904;SDS011;61048;52.162;4.516;2022-10-31T09:38:08;19.30;;;9.10;;
72904;SDS011;61048;52.162;4.516;2022-10-31T09:40:36;17.02;;;8.25;;
72904;SDS011;61048;52.162;4.516;2022-10-31T09:43:07;16.70;;;9.88;;
72904;SDS011;61048;52.162;4.516;2022-10-31T09:45:43;18.23;;;8.73;;
72904;SDS011;61048;52.162;4.516;2022-10-31T09:51:16;14.05;;;7.93;;
72904;SDS011;61048;52.162;4.516;2022-10-31T09:53:47;16.33;;;8.50;;
72904;SDS011;61048;52.162;4.516;2022-10-31T09:56:17;16.25;;;8.77;;
72904;SDS011;61048;52.162;4.516;2022-10-31T09:58:47;13.15;;;8.43;;
72904;SDS011;61048;52.162;4.516;2022-10-31T10:01:19;12.57;;;6.43;;
72904;SDS011;61048;52.162;4.516;2022-10-31T10:04:05;12.75;;;7.72;;
72904;SDS011;61048;52.162;4.516;2022-10-31T10:06:51;12.63;;;8.38;;
72904;SDS011;61048;52.162;4.516;2022-10-31T10:09:18;13.00;;;7.53;;
72904;SDS011;61048;52.162;4.516;2022-10-31T10:11:53;13.80;;;7.65;;
72904;SDS011;61048;52.162;4.516;2022-10-31T10:14:34;12.55;;;7.28;;
72904;SDS011;61048;52.162;4.516;2022-10-31T10:17:16;13.30;;;8.10;;
72904;SDS011;61048;52.162;4.516;2022-10-31T10:19:56;15.23;;;7.78;;
72904;SDS011;61048;52.162;4.516;2022-10-31T10:22:42;14.88;;;9.02;;
72904;SDS011;61048;52.162;4.516;2022-10-31T10:25:16;12.30;;;8.07;;
72904;SDS011;61048;52.162;4.516;2022-10-31T10:27:48;11.52;;;7.53;;
72904;SDS011;61048;52.162;4.516;2022-10-31T10:30:28;12.07;;;7.05;;
72904;SDS011;61048;52.162;4.516;2022-10-31T10:33:02;13.10;;;7.75;;
72904;SDS011;61048;52.162;4.516;2022-10-31T10:35:34;14.20;;;8.13;;
72904;SDS011;61048;52.162;4.516;2022-10-31T10:38:08;12.45;;;7.68;;
72904;SDS011;61048;52.162;4.516;2022-10-31T10:40:40;14.63;;;8.50;;
72904;SDS011;61048;52.162;4.516;2022-10-31T10:43:15;14.10;;;7.22;;
72904;SDS011;61048;52.162;4.516;2022-10-31T10:45:49;12.48;;;7.10;;
72904;SDS011;61048;52.162;4.516;2022-10-31T10:48:45;14.90;;;7.88;;
72904;SDS011;61048;52.162;4.516;2022-10-31T10:51:19;11.88;;;7.55;;
72904;SDS011;61048;52.162;4.516;2022-10-31T10:53:58;14.02;;;7.88;;
72904;SDS011;61048;52.162;4.516;2022-10-31T10:56:45;14.35;;;8.43;;
72904;SDS011;61048;52.162;4.516;2022-10-31T10:59:18;10.70;;;7.45;;
72904;SDS011;61048;52.162;4.516;2022-10-31T11:01:48;12.50;;;7.97;;
72904;SDS011;61048;52.162;4.516;2022-10-31T11:04:24;11.75;;;7.60;;
72904;SDS011;61048;52.162;4.516;2022-10-31T11:06:58;14.50;;;8.13;;
72904;SDS011;61048;52.162;4.516;2022-10-31T11:09:26;11.07;;;7.57;;
72904;SDS011;61048;52.162;4.516;2022-10-31T11:11:53;12.52;;;7.07;;
72904;SDS011;61048;52.162;4.516;2022-10-31T11:14:21;11.70;;;7.82;;
72904;SDS011;61048;52.162;4.516;2022-10-31T11:16:49;12.85;;;7.88;;
72904;SDS011;61048;52.162;4.516;2022-10-31T11:19:19;11.82;;;6.13;;
72904;SDS011;61048;52.162;4.516;2022-10-31T11:21:50;12.85;;;7.13;;
72904;SDS011;61048;52.162;4.516;2022-10-31T11:24:18;12.23;;;6.80;;
72904;SDS011;61048;52.162;4.516;2022-10-31T11:26:47;14.63;;;6.40;;
72904;SDS011;61048;52.162;4.516;2022-10-31T11:29:16;14.90;;;7.97;;
72904;SDS011;61048;52.162;4.516;2022-10-31T11:31:46;12.43;;;7.72;;
72904;SDS011;61048;52.162;4.516;2022-10-31T11:34:25;15.38;;;8.90;;
72904;SDS011;61048;52.162;4.516;2022-10-31T11:36:55;13.77;;;8.40;;
72904;SDS011;61048;52.162;4.516;2022-10-31T11:39:26;15.93;;;8.48;;
72904;SDS011;61048;52.162;4.516;2022-10-31T11:41:53;10.38;;;6.38;;
72904;SDS011;61048;52.162;4.516;2022-10-31T11:44:22;11.85;;;7.47;;
72904;SDS011;61048;52.162;4.516;2022-10-31T11:46:52;12.10;;;8.43;;
72904;SDS011;61048;52.162;4.516;2022-10-31T11:49:25;13.23;;;8.52;;
72904;SDS011;61048;52.162;4.516;2022-10-31T11:51:56;14.05;;;7.85;;
72904;SDS011;61048;52.162;4.516;2022-10-31T11:54:27;13.77;;;7.90;;
72904;SDS011;61048;52.162;4.516;2022-10-31T11:56:55;12.20;;;8.07;;
72904;SDS011;61048;52.162;4.516;2022-10-31T11:59:24;12.65;;;8.75;;
72904;SDS011;61048;52.162;4.516;2022-10-31T12:01:53;13.45;;;7.93;;
72904;SDS011;61048;52.162;4.516;2022-10-31T12:04:35;12.88;;;7.72;;
72904;SDS011;61048;52.162;4.516;2022-10-31T12:07:07;11.27;;;6.50;;
72904;SDS011;61048;52.162;4.516;2022-10-31T12:09:35;14.25;;;7.70;;
72904;SDS011;61048;52.162;4.516;2022-10-31T12:12:11;12.75;;;7.20;;
72904;SDS011;61048;52.162;4.516;2022-10-31T12:14:59;11.55;;;6.97;;
72904;SDS011;61048;52.162;4.516;2022-10-31T12:17:36;10.52;;;6.95;;
72904;SDS011;61048;52.162;4.516;2022-10-31T12:20:16;15.15;;;8.52;;
72904;SDS011;61048;52.162;4.516;2022-10-31T12:22:52;12.45;;;8.65;;
72904;SDS011;61048;52.162;4.516;2022-10-31T12:25:28;12.60;;;7.43;;
72904;SDS011;61048;52.162;4.516;2022-10-31T12:28:15;11.23;;;7.43;;
72904;SDS011;61048;52.162;4.516;2022-10-31T12:31:19;13.18;;;6.82;;
72904;SDS011;61048;52.162;4.516;2022-10-31T12:33:58;11.13;;;7.05;;
72904;SDS011;61048;52.162;4.516;2022-10-31T12:36:40;11.80;;;8.07;;
72904;SDS011;61048;52.162;4.516;2022-10-31T12:39:24;14.27;;;7.07;;
72904;SDS011;61048;52.162;4.516;2022-10-31T12:41:57;16.40;;;8.70;;
72904;SDS011;61048;52.162;4.516;2022-10-31T12:47:36;13.25;;;6.55;;
72904;SDS011;61048;52.162;4.516;2022-10-31T12:50:26;13.57;;;7.35;;
72904;SDS011;61048;52.162;4.516;2022-10-31T12:53:04;14.80;;;8.98;;
72904;SDS011;61048;52.162;4.516;2022-10-31T12:55:47;13.50;;;8.63;;
72904;SDS011;61048;52.162;4.516;2022-10-31T12:58:23;15.10;;;9.68;;
72904;SDS011;61048;52.162;4.516;2022-10-31T13:00:55;16.77;;;8.85;;
72904;SDS011;61048;52.162;4.516;2022-10-31T13:03:30;14.52;;;7.90;;
72904;SDS011;61048;52.162;4.516;2022-10-31T13:06:02;16.42;;;10.25;;
72904;SDS011;61048;52.162;4.516;2022-10-31T13:08:35;19.20;;;10.63;;
72904;SDS011;61048;52.162;4.516;2022-10-31T13:11:08;17.88;;;10.05;;
72904;SDS011;61048;52.162;4.516;2022-10-31T13:13:38;14.77;;;8.90;;
72904;SDS011;61048;52.162;4.516;2022-10-31T13:16:10;13.40;;;8.07;;
72904;SDS011;61048;52.162;4.516;2022-10-31T13:18:42;18.58;;;10.57;;
72904;SDS011;61048;52.162;4.516;2022-10-31T13:21:12;18.80;;;10.65;;
72904;SDS011;61048;52.162;4.516;2022-10-31T13:23:46;17.52;;;10.13;;
72904;SDS011;61048;52.162;4.516;2022-10-31T13:26:18;15.50;;;10.00;;
72904;SDS011;61048;52.162;4.516;2022-10-31T13:28:51;16.65;;;10.45;;
72904;SDS011;61048;52.162;4.516;2022-10-31T13:31:23;18.60;;;10.00;;
72904;SDS011;61048;52.162;4.516;2022-10-31T13:33:51;15.45;;;9.55;;
72904;SDS011;61048;52.162;4.516;2022-10-31T13:36:22;19.20;;;10.93;;
72904;SDS011;61048;52.162;4.516;2022-10-31T13:38:59;18.95;;;10.10;;
72904;SDS011;61048;52.162;4.516;2022-10-31T13:41:37;18.88;;;10.82;;
72904;SDS011;61048;52.162;4.516;2022-10-31T13:44:18;16.80;;;9.80;;
72904;SDS011;61048;52.162;4.516;2022-10-31T13:46:49;19.17;;;11.18;;
72904;SDS011;61048;52.162;4.516;2022-10-31T13:49:22;16.58;;;10.23;;
72904;SDS011;61048;52.162;4.516;2022-10-31T13:51:51;19.35;;;11.48;;
72904;SDS011;61048;52.162;4.516;2022-10-31T13:54:21;24.35;;;11.98;;
72904;SDS011;61048;52.162;4.516;2022-10-31T13:56:50;20.67;;;11.02;;
72904;SDS011;61048;52.162;4.516;2022-10-31T13:59:19;17.67;;;10.48;;
72904;SDS011;61048;52.162;4.516;2022-10-31T14:01:49;19.33;;;10.82;;
72904;SDS011;61048;52.162;4.516;2022-10-31T14:04:19;19.88;;;11.95;;
72904;SDS011;61048;52.162;4.516;2022-10-31T14:06:52;20.88;;;11.15;;
72904;SDS011;61048;52.162;4.516;2022-10-31T14:09:27;19.83;;;10.55;;
72904;SDS011;61048;52.162;4.516;2022-10-31T14:11:57;17.80;;;9.43;;
72904;SDS011;61048;52.162;4.516;2022-10-31T14:14:31;17.27;;;10.57;;
72904;SDS011;61048;52.162;4.516;2022-10-31T14:17:02;18.85;;;11.05;;
72904;SDS011;61048;52.162;4.516;2022-10-31T14:19:29;19.05;;;11.95;;
72904;SDS011;61048;52.162;4.516;2022-10-31T14:21:56;20.63;;;12.93;;
72904;SDS011;61048;52.162;4.516;2022-10-31T14:24:36;21.58;;;12.35;;
72904;SDS011;61048;52.162;4.516;2022-10-31T14:27:05;25.80;;;12.85;;
72904;SDS011;61048;52.162;4.516;2022-10-31T14:30:14;22.70;;;12.35;;
72904;SDS011;61048;52.162;4.516;2022-10-31T14:32:42;21.50;;;12.40;;
72904;SDS011;61048;52.162;4.516;2022-10-31T14:35:13;21.83;;;11.95;;
72904;SDS011;61048;52.162;4.516;2022-10-31T14:37:49;23.85;;;12.52;;
72904;SDS011;61048;52.162;4.516;2022-10-31T14:40:33;24.52;;;11.32;;
72904;SDS011;61048;52.162;4.516;2022-10-31T14:45:58;22.23;;;13.35;;
72904;SDS011;61048;52.162;4.516;2022-10-31T14:48:36;23.77;;;13.00;;
72904;SDS011;61048;52.162;4.516;2022-10-31T14:51:14;23.65;;;12.13;;
72904;SDS011;61048;52.162;4.516;2022-10-31T14:53:45;27.83;;;13.55;;
72904;SDS011;61048;52.162;4.516;2022-10-31T14:56:17;22.08;;;11.50;;
72904;SDS011;61048;52.162;4.516;2022-10-31T14:58:47;24.48;;;13.35;;
72904;SDS011;61048;52.162;4.516;2022-10-31T15:01:18;23.50;;;12.68;;
72904;SDS011;61048;52.162;4.516;2022-10-31T15:03:49;28.95;;;14.52;;
72904;SDS011;61048;52.162;4.516;2022-10-31T15:06:18;23.65;;;13.45;;
72904;SDS011;61048;52.162;4.516;2022-10-31T15:08:48;23.88;;;12.75;;
72904;SDS011;61048;52.162;4.516;2022-10-31T15:11:16;23.83;;;12.98;;
72904;SDS011;61048;52.162;4.516;2022-10-31T15:13:45;25.58;;;13.60;;